createdAt,value
2022-08-17T00:00:11.031Z,100.00
2022-08-17T00:03:02.867Z,100.00
2022-08-17T00:05:34.940Z,100.00
2022-08-17T00:08:06.260Z,100.00
2022-08-17T00:10:38.408Z,100.00
2022-08-17T00:13:09.783Z,100.00
2022-08-17T00:15:38.805Z,100.00
2022-08-17T00:19:00.347Z,100.00
2022-08-17T00:20:44.072Z,100.00
2022-08-17T00:23:16.307Z,100.00
2022-08-17T00:25:49.085Z,100.00
2022-08-17T00:28:18.794Z,100.00
2022-08-17T00:30:52.853Z,100.00
2022-08-17T00:33:32.984Z,100.00
2022-08-17T00:36:08.078Z,100.00
2022-08-17T00:38:43.490Z,100.00
2022-08-17T00:41:15.526Z,100.00
2022-08-17T00:43:51.514Z,100.00
2022-08-17T00:46:30.826Z,100.00
2022-08-17T00:48:58.864Z,100.00
2022-08-17T00:51:48.787Z,100.00
2022-08-17T00:54:23.411Z,100.00
2022-08-17T00:56:58.113Z,100.00
2022-08-17T00:59:31.227Z,100.00
2022-08-17T01:02:03.218Z,100.00
2022-08-17T01:04:33.794Z,100.00
2022-08-17T01:07:05.230Z,100.00
2022-08-17T01:09:39.589Z,100.00
2022-08-17T01:12:12.619Z,100.00
2022-08-17T01:14:45.542Z,100.00
2022-08-17T01:17:18.037Z,100.00
2022-08-17T01:19:48.407Z,100.00
2022-08-17T01:22:24.208Z,100.00
2022-08-17T01:24:56.122Z,100.00
2022-08-17T01:27:27.030Z,100.00
2022-08-17T01:30:01.636Z,100.00
2022-08-17T01:32:32.284Z,100.00
2022-08-17T01:35:05.323Z,100.00
2022-08-17T01:37:40.621Z,100.00
2022-08-17T01:40:19.683Z,100.00
2022-08-17T01:42:55.243Z,100.00
2022-08-17T01:45:35.502Z,100.00
2022-08-17T01:48:29.825Z,100.00
2022-08-17T01:51:05.008Z,100.00
2022-08-17T01:53:40.989Z,100.00
2022-08-17T01:56:13.012Z,100.00
2022-08-17T01:58:46.975Z,100.00
2022-08-17T02:01:26.199Z,100.00
2022-08-17T02:04:31.225Z,100.00
2022-08-17T02:07:02.908Z,100.00
2022-08-17T02:09:38.168Z,100.00
2022-08-17T02:12:39.171Z,100.00
2022-08-17T02:14:39.096Z,100.00
2022-08-17T02:17:08.047Z,100.00
2022-08-17T02:19:36.868Z,100.00
2022-08-17T02:22:08.787Z,100.00
2022-08-17T02:25:00.288Z,100.00
2022-08-17T02:27:29.086Z,100.00
2022-08-17T02:30:50.094Z,100.00
2022-08-17T02:32:39.652Z,100.00
2022-08-17T02:35:11.699Z,100.00
2022-08-17T02:37:44.940Z,100.00
2022-08-17T02:40:35.614Z,100.00
2022-08-17T02:42:50.526Z,100.00
2022-08-17T02:45:23.010Z,100.00
2022-08-17T02:47:52.619Z,100.00
2022-08-17T02:50:23.984Z,100.00
2022-08-17T02:53:02.083Z,100.00
2022-08-17T02:55:32.041Z,100.00
2022-08-17T02:58:01.883Z,100.00
2022-08-17T03:00:41.221Z,100.00
2022-08-17T03:03:13.683Z,100.00
2022-08-17T03:05:43.092Z,100.00
2022-08-17T03:08:13.096Z,100.00
2022-08-17T03:10:45.817Z,100.00
2022-08-17T03:13:17.726Z,100.00
2022-08-17T03:15:49.614Z,100.00
2022-08-17T03:18:25.014Z,100.00
2022-08-17T03:20:51.049Z,100.00
2022-08-17T03:23:23.932Z,100.00
2022-08-17T03:25:52.989Z,100.00
2022-08-17T03:28:21.381Z,100.00
2022-08-17T03:30:51.949Z,100.00
2022-08-17T03:33:25.752Z,100.00
2022-08-17T03:35:58.483Z,100.00
2022-08-17T03:38:27.777Z,100.00
2022-08-17T03:40:59.778Z,100.00
2022-08-17T03:43:31.782Z,100.00
2022-08-17T03:46:27.723Z,100.00
2022-08-17T03:49:10.733Z,100.00
2022-08-17T03:51:57.138Z,100.00
2022-08-17T03:54:45.082Z,100.00
2022-08-17T03:57:14.586Z,100.00
2022-08-17T03:59:45.409Z,100.00
2022-08-17T04:02:29.798Z,100.00
2022-08-17T04:04:59.724Z,100.00
2022-08-17T04:07:33.557Z,100.00
2022-08-17T04:10:02.378Z,100.00
2022-08-17T04:12:35.825Z,100.00
2022-08-17T04:15:05.323Z,100.00
2022-08-17T04:17:41.109Z,100.00
2022-08-17T04:20:12.466Z,100.00
2022-08-17T04:22:41.410Z,100.00
2022-08-17T04:25:15.939Z,100.00
2022-08-17T04:27:46.099Z,100.00
2022-08-17T04:30:15.024Z,100.00
2022-08-17T04:33:19.230Z,100.00
2022-08-17T04:35:32.362Z,100.00
2022-08-17T04:38:01.940Z,100.00
2022-08-17T04:40:48.747Z,100.00
2022-08-17T04:43:20.540Z,100.00
2022-08-17T04:45:56.113Z,100.00
2022-08-17T04:48:29.702Z,100.00
2022-08-17T04:50:56.419Z,100.00
2022-08-17T04:53:26.500Z,100.00
2022-08-17T04:55:59.039Z,100.00
2022-08-17T04:58:35.666Z,100.00
2022-08-17T05:01:05.938Z,100.00
2022-08-17T05:03:34.795Z,100.00
2022-08-17T05:06:12.631Z,100.00
2022-08-17T05:08:39.851Z,100.00
2022-08-17T05:11:09.249Z,100.00
2022-08-17T05:13:41.059Z,100.00
2022-08-17T05:16:12.949Z,100.00
2022-08-17T05:18:44.068Z,100.00
2022-08-17T05:21:17.180Z,100.00
2022-08-17T05:23:56.408Z,100.00
2022-08-17T05:26:27.378Z,100.00
2022-08-17T05:29:02.699Z,100.00
2022-08-17T05:31:36.056Z,100.00
2022-08-17T05:34:04.936Z,100.00
2022-08-17T05:36:42.199Z,100.00
2022-08-17T05:39:04.640Z,100.00
2022-08-17T05:41:36.198Z,100.00
2022-08-17T05:44:05.235Z,100.00
2022-08-17T05:46:37.331Z,100.00
2022-08-17T05:49:11.638Z,100.00
2022-08-17T05:51:55.861Z,100.00
2022-08-17T05:54:56.355Z,100.00
2022-08-17T05:57:53.811Z,100.00
2022-08-17T06:00:30.397Z,100.00
2022-08-17T06:03:01.223Z,100.00
2022-08-17T06:06:01.906Z,100.00
2022-08-17T06:08:52.961Z,100.00
2022-08-17T06:11:39.672Z,100.00
2022-08-17T06:14:32.377Z,100.00
2022-08-17T06:17:07.052Z,100.00
2022-08-17T06:19:46.004Z,100.00
2022-08-17T06:22:18.307Z,100.00
2022-08-17T06:25:10.235Z,100.00
2022-08-17T06:27:46.241Z,100.00
2022-08-17T06:30:27.790Z,100.00
2022-08-17T06:33:12.362Z,100.00
2022-08-17T06:35:44.825Z,100.00
2022-08-17T06:38:54.915Z,100.00
2022-08-17T06:47:34.156Z,100.00
2022-08-17T06:50:16.355Z,100.00
2022-08-17T06:52:57.396Z,100.00
2022-08-17T06:55:38.053Z,100.00
2022-08-17T06:58:15.788Z,100.00
2022-08-17T07:00:44.646Z,100.00
2022-08-17T07:03:33.408Z,100.00
2022-08-17T07:06:10.794Z,100.00
2022-08-17T07:08:44.850Z,100.00
2022-08-17T07:11:19.618Z,100.00
2022-08-17T07:14:22.370Z,100.00
2022-08-17T07:16:54.303Z,100.00
2022-08-17T07:19:30.113Z,100.00
2022-08-17T07:22:31.126Z,100.00
2022-08-17T07:25:08.054Z,100.00
2022-08-17T07:27:44.695Z,100.00
2022-08-17T07:30:16.464Z,100.00
2022-08-17T07:32:52.755Z,100.00
2022-08-17T07:35:24.751Z,100.00
2022-08-17T07:38:07.543Z,100.00
2022-08-17T07:41:03.079Z,100.00
2022-08-17T07:44:00.130Z,100.00
2022-08-17T07:47:29.864Z,100.00
2022-08-17T07:50:32.047Z,100.00
2022-08-17T07:53:28.775Z,100.00
2022-08-17T07:59:37.126Z,100.00
2022-08-17T08:12:33.669Z,100.00
2022-08-17T08:15:20.395Z,100.00
2022-08-17T08:21:58.129Z,100.00
2022-08-17T08:24:41.627Z,100.00
2022-08-17T08:27:35.493Z,100.00
2022-08-17T08:30:24.588Z,100.00
2022-08-17T08:32:57.296Z,100.00
2022-08-17T08:35:45.678Z,100.00
2022-08-17T08:38:40.235Z,100.00
2022-08-17T08:41:20.644Z,100.00
2022-08-17T08:44:11.370Z,100.00
2022-08-17T08:46:49.114Z,100.00
2022-08-17T08:49:45.292Z,100.00
2022-08-17T08:51:57.590Z,100.00
2022-08-17T08:54:31.974Z,100.00
2022-08-17T08:59:58.266Z,100.00
2022-08-17T09:02:36.352Z,100.00
2022-08-17T09:05:16.558Z,100.00
2022-08-17T09:10:49.212Z,72.15
2022-08-17T09:13:37.346Z,56.76
2022-08-17T09:16:19.851Z,56.55
2022-08-17T09:19:04.485Z,53.56
2022-08-17T09:21:48.094Z,53.66
2022-08-17T09:24:28.397Z,53.09
2022-08-17T09:27:16.036Z,52.86
2022-08-17T09:29:57.811Z,52.75
2022-08-17T09:32:44.577Z,49.96
2022-08-17T09:35:19.987Z,46.71
2022-08-17T09:38:17.092Z,45.82
2022-08-17T09:40:56.971Z,44.27
2022-08-17T09:43:40.945Z,44.30
2022-08-17T09:46:24.629Z,42.90
2022-08-17T09:49:15.251Z,43.74
2022-08-17T09:52:11.320Z,42.40
2022-08-17T09:54:42.588Z,42.09
2022-08-17T09:57:31.007Z,40.64
2022-08-17T10:00:20.172Z,40.95
2022-08-17T10:03:28.777Z,40.63
2022-08-17T10:06:13.444Z,41.49
2022-08-17T10:09:04.647Z,39.64
2022-08-17T10:11:48.277Z,40.13
2022-08-17T10:14:36.399Z,39.69
2022-08-17T10:17:03.896Z,39.43
2022-08-17T10:19:47.564Z,38.94
2022-08-17T10:22:40.098Z,38.92
2022-08-17T10:25:48.696Z,38.03
2022-08-17T10:30:37.080Z,38.12
2022-08-17T10:31:34.147Z,36.26
2022-08-17T10:33:53.993Z,36.96
2022-08-17T10:36:25.484Z,37.39
2022-08-17T10:39:21.228Z,36.60
2022-08-17T10:41:53.190Z,36.51
2022-08-17T10:44:42.725Z,35.05
2022-08-17T10:47:18.545Z,35.94
2022-08-17T10:49:56.286Z,36.20
2022-08-17T10:52:33.973Z,35.17
2022-08-17T10:55:15.129Z,35.54
2022-08-17T10:58:16.038Z,34.87
2022-08-17T11:01:03.071Z,35.25
2022-08-17T11:03:45.914Z,34.23
2022-08-17T11:06:26.122Z,34.56
2022-08-17T11:09:40.530Z,34.72
2022-08-17T11:12:15.362Z,33.99
2022-08-17T11:15:20.048Z,34.32
2022-08-17T11:18:15.900Z,33.60
2022-08-17T11:21:27.464Z,34.31
2022-08-17T11:24:35.100Z,34.19
2022-08-17T11:30:30.073Z,35.17
2022-08-17T11:33:15.795Z,33.87
2022-08-17T11:39:29.996Z,33.64
2022-08-17T11:46:22.735Z,34.63
2022-08-17T11:49:21.196Z,35.14
2022-08-17T11:52:12.581Z,35.98
2022-08-17T11:54:47.746Z,37.93
2022-08-17T11:57:31.736Z,41.10
2022-08-17T12:00:08.651Z,40.82
2022-08-17T12:02:47.835Z,42.37
2022-08-17T12:05:18.015Z,43.18
2022-08-17T12:07:49.766Z,43.22
2022-08-17T12:13:09.125Z,40.69
2022-08-17T12:15:40.669Z,38.68
2022-08-17T12:18:14.201Z,40.17
2022-08-17T12:20:56.097Z,39.55
2022-08-17T12:26:22.911Z,39.50
2022-08-17T12:28:56.058Z,38.62
2022-08-17T12:32:05.983Z,38.13
2022-08-17T12:35:08.290Z,40.00
2022-08-17T12:37:37.034Z,38.53
2022-08-17T12:40:25.363Z,37.59
2022-08-17T12:43:13.640Z,36.58
2022-08-17T12:52:19.759Z,34.64
2022-08-17T12:57:55.376Z,33.20
2022-08-17T13:00:34.959Z,34.16
2022-08-17T13:03:12.575Z,35.59
2022-08-17T13:05:44.190Z,37.75
2022-08-17T13:08:19.246Z,37.17
2022-08-17T13:11:00.702Z,36.43
2022-08-17T13:13:35.706Z,36.89
2022-08-17T13:16:09.328Z,37.51
2022-08-17T13:18:53.828Z,36.78
2022-08-17T13:21:29.920Z,36.93
2022-08-17T13:24:10.282Z,35.86
2022-08-17T13:26:41.925Z,35.26
2022-08-17T13:29:31.797Z,36.29
2022-08-17T13:32:13.605Z,35.70
2022-08-17T13:35:06.526Z,35.46
2022-08-17T13:37:28.377Z,35.27
2022-08-17T13:39:59.695Z,36.57
2022-08-17T13:42:50.547Z,36.38
2022-08-17T13:45:36.768Z,35.69
2022-08-17T13:48:12.523Z,35.77
2022-08-17T13:50:45.230Z,36.37
2022-08-17T13:53:38.189Z,36.86
2022-08-17T13:56:31.710Z,36.76
2022-08-17T13:58:44.758Z,37.37
2022-08-17T14:01:39.643Z,36.37
2022-08-17T14:04:11.610Z,35.29
2022-08-17T14:06:58.652Z,35.58
2022-08-17T14:09:36.808Z,36.22
2022-08-17T14:12:03.769Z,36.80
2022-08-17T14:14:33.576Z,36.48
2022-08-17T14:17:02.274Z,35.80
2022-08-17T14:19:31.297Z,36.04
2022-08-17T14:22:01.789Z,35.93
2022-08-17T14:24:33.646Z,36.33
2022-08-17T14:27:04.751Z,36.25
2022-08-17T14:29:35.941Z,36.69
2022-08-17T14:32:10.640Z,36.99
2022-08-17T14:34:39.309Z,35.29
2022-08-17T14:37:19.656Z,35.11
2022-08-17T14:42:46.121Z,34.58
2022-08-17T14:45:30.471Z,33.78
2022-08-17T14:47:46.711Z,33.67
2022-08-17T14:50:19.561Z,32.80
2022-08-17T14:55:43.135Z,31.26
2022-08-17T14:58:12.036Z,31.01
2022-08-17T15:00:57.636Z,31.68
2022-08-17T15:06:37.570Z,31.34
2022-08-17T15:09:06.416Z,30.69
2022-08-17T15:11:35.114Z,29.71
2022-08-17T15:14:03.891Z,31.10
2022-08-17T15:16:34.993Z,30.58
2022-08-17T15:19:08.813Z,30.16
2022-08-17T15:21:37.810Z,30.54
2022-08-17T15:24:09.084Z,30.68
2022-08-17T15:26:56.779Z,29.85
2022-08-17T15:29:29.964Z,30.07
2022-08-17T15:32:00.920Z,31.86
2022-08-17T15:34:30.122Z,31.38
2022-08-17T15:36:58.897Z,32.07
2022-08-17T15:39:33.681Z,31.48
2022-08-17T15:42:05.062Z,30.33
2022-08-17T15:44:37.608Z,30.24
2022-08-17T15:47:28.712Z,30.10
2022-08-17T15:49:55.461Z,28.90
2022-08-17T15:52:29.795Z,29.57
2022-08-17T15:55:01.898Z,30.08
2022-08-17T15:57:32.510Z,30.15
2022-08-17T16:00:02.403Z,30.10
2022-08-17T16:03:45.451Z,30.51
2022-08-17T16:05:21.832Z,30.87
2022-08-17T16:07:53.475Z,30.76
2022-08-17T16:10:34.588Z,30.67
2022-08-17T16:12:56.623Z,31.25
2022-08-17T16:15:42.799Z,33.76
2022-08-17T16:18:13.488Z,34.08
2022-08-17T16:20:52.729Z,34.40
2022-08-17T16:26:29.370Z,32.35
2022-08-17T16:29:08.212Z,32.60
2022-08-17T16:31:38.135Z,32.10
2022-08-17T16:34:32.580Z,32.78
2022-08-17T16:37:02.111Z,32.58
2022-08-17T16:42:37.856Z,34.09
2022-08-17T16:45:11.790Z,33.33
2022-08-17T16:47:42.251Z,33.96
2022-08-17T16:50:16.315Z,33.82
2022-08-17T16:52:47.707Z,33.95
2022-08-17T16:55:21.586Z,34.05
2022-08-17T16:57:59.970Z,34.41
2022-08-17T17:00:37.827Z,35.41
2022-08-17T17:03:35.384Z,34.72
2022-08-17T17:06:22.355Z,34.89
2022-08-17T17:09:17.774Z,35.50
2022-08-17T17:11:52.126Z,35.75
2022-08-17T17:14:27.938Z,36.00
2022-08-17T17:17:06.718Z,36.05
2022-08-17T17:19:55.253Z,36.32
2022-08-17T17:22:38.697Z,36.67
2022-08-17T17:25:25.454Z,36.30
2022-08-17T17:28:06.260Z,36.63
2022-08-17T17:30:57.404Z,37.05
2022-08-17T17:33:34.681Z,37.47
2022-08-17T17:36:07.263Z,37.25
2022-08-17T17:38:41.790Z,37.61
2022-08-17T17:41:20.282Z,38.15
2022-08-17T17:43:54.585Z,38.26
2022-08-17T17:46:33.471Z,38.82
2022-08-17T17:49:02.193Z,39.17
2022-08-17T17:52:08.614Z,39.24
2022-08-17T17:54:22.932Z,40.18
2022-08-17T17:57:09.914Z,40.39
2022-08-17T17:59:47.624Z,41.17
2022-08-17T18:02:43.248Z,42.47
2022-08-17T18:05:32.940Z,43.21
2022-08-17T18:08:34.886Z,42.68
2022-08-17T18:11:34.722Z,44.08
2022-08-17T18:14:01.077Z,44.37
2022-08-17T18:16:32.926Z,44.86
2022-08-17T18:19:01.804Z,45.94
2022-08-17T18:21:40.817Z,45.55
2022-08-17T18:24:10.698Z,45.71
2022-08-17T18:26:55.467Z,46.04
2022-08-17T18:29:34.604Z,46.25
2022-08-17T18:32:19.176Z,48.43
2022-08-17T18:34:51.106Z,48.50
2022-08-17T18:37:34.612Z,48.96
2022-08-17T18:40:21.630Z,49.84
2022-08-17T18:43:11.400Z,51.23
2022-08-17T18:45:50.886Z,51.23
2022-08-17T18:48:33.043Z,52.28
2022-08-17T18:51:07.547Z,53.50
2022-08-17T18:53:41.308Z,53.23
2022-08-17T18:56:24.785Z,54.47
2022-08-17T18:59:05.243Z,55.15
2022-08-17T19:01:53.395Z,57.53
2022-08-17T19:04:42.553Z,57.99
2022-08-17T19:07:19.809Z,58.66
2022-08-17T19:09:51.443Z,58.95
2022-08-17T19:12:38.498Z,60.84
2022-08-17T19:15:11.240Z,60.97
2022-08-17T19:17:57.698Z,61.00
2022-08-17T19:20:29.490Z,60.00
2022-08-17T19:23:23.917Z,59.42
2022-08-17T19:25:59.441Z,61.45
2022-08-17T19:28:53.250Z,62.18
2022-08-17T19:31:24.570Z,64.23
2022-08-17T19:33:53.867Z,63.29
2022-08-17T19:36:29.578Z,62.97
2022-08-17T19:39:18.040Z,64.34
2022-08-17T19:41:58.708Z,65.91
2022-08-17T19:44:50.895Z,67.79
2022-08-17T19:47:54.789Z,69.92
2022-08-17T19:50:44.777Z,68.57
2022-08-17T19:53:23.502Z,66.72
2022-08-17T19:56:11.740Z,68.97
2022-08-17T19:58:58.737Z,71.15
2022-08-17T20:01:36.439Z,69.64
2022-08-17T20:04:17.279Z,69.94
2022-08-17T20:06:50.602Z,70.55
2022-08-17T20:09:33.629Z,72.65
2022-08-17T20:12:14.047Z,71.14
2022-08-17T20:14:53.469Z,71.98
2022-08-17T20:17:16.641Z,71.47
2022-08-17T20:19:55.518Z,73.74
2022-08-17T20:22:31.326Z,71.98
2022-08-17T20:25:13.765Z,73.81
2022-08-17T20:27:54.492Z,73.20
2022-08-17T20:30:27.833Z,73.28
2022-08-17T20:33:02.328Z,75.50
2022-08-17T20:35:39.455Z,78.70
2022-08-17T20:38:13.884Z,78.39
2022-08-17T20:40:59.703Z,81.07
2022-08-17T20:43:37.597Z,81.27
2022-08-17T20:46:27.085Z,81.29
2022-08-17T20:49:01.529Z,81.36
2022-08-17T20:51:37.759Z,84.03
2022-08-17T20:54:18.222Z,85.00
2022-08-17T20:56:49.647Z,83.83
2022-08-17T20:59:28.567Z,84.28
2022-08-17T21:02:18.489Z,87.33
2022-08-17T21:04:48.555Z,85.12
2022-08-17T21:07:42.792Z,87.74
2022-08-17T21:10:15.189Z,93.95
2022-08-17T21:13:01.676Z,91.95
2022-08-17T21:15:44.543Z,92.33
2022-08-17T21:18:31.306Z,94.97
2022-08-17T21:21:28.444Z,92.51
2022-08-17T21:24:02.738Z,93.92
2022-08-17T21:26:50.459Z,93.06
2022-08-17T21:29:31.020Z,94.38
2022-08-17T21:32:13.765Z,96.22
2022-08-17T21:34:47.278Z,92.89
2022-08-17T21:37:25.029Z,94.45
2022-08-17T21:40:08.637Z,98.42
2022-08-17T21:42:34.804Z,96.95
2022-08-17T21:45:29.847Z,98.66
2022-08-17T21:48:16.783Z,100.00
2022-08-17T21:51:04.338Z,100.00
2022-08-17T21:53:48.063Z,100.00
2022-08-17T21:56:22.589Z,100.00
2022-08-17T21:58:56.891Z,100.00
2022-08-17T22:01:28.706Z,100.00
2022-08-17T22:04:03.058Z,100.00
2022-08-17T22:06:40.345Z,100.00
2022-08-17T22:09:12.703Z,100.00
2022-08-17T22:12:07.727Z,100.00
2022-08-17T22:14:52.063Z,100.00
2022-08-17T22:17:22.807Z,100.00
2022-08-17T22:20:12.331Z,100.00
2022-08-17T22:23:02.603Z,100.00
2022-08-17T22:25:35.110Z,100.00
2022-08-17T22:28:08.504Z,100.00
2022-08-17T22:31:05.360Z,100.00
2022-08-17T22:33:41.225Z,100.00
2022-08-17T22:36:29.912Z,100.00
2022-08-17T22:39:12.089Z,100.00
2022-08-17T22:41:56.068Z,100.00
2022-08-17T22:44:42.696Z,100.00
2022-08-17T22:47:19.231Z,100.00
2022-08-17T22:50:03.393Z,100.00
2022-08-17T22:52:42.996Z,100.00
2022-08-17T22:58:44.017Z,100.00
2022-08-17T23:01:31.513Z,100.00
2022-08-17T23:04:04.595Z,100.00
2022-08-17T23:06:39.399Z,100.00
2022-08-17T23:09:09.236Z,100.00
2022-08-17T23:11:49.878Z,100.00
2022-08-17T23:14:23.330Z,100.00
2022-08-17T23:16:56.654Z,100.00
2022-08-17T23:19:33.846Z,100.00
2022-08-17T23:22:05.716Z,100.00
2022-08-17T23:24:37.416Z,100.00
2022-08-17T23:27:12.531Z,100.00
2022-08-17T23:29:46.386Z,100.00
2022-08-17T23:32:20.578Z,100.00
2022-08-17T23:34:52.200Z,100.00
2022-08-17T23:37:27.237Z,100.00
2022-08-17T23:40:01.076Z,100.00
2022-08-17T23:42:30.807Z,100.00
2022-08-17T23:44:59.872Z,100.00
2022-08-17T23:47:31.639Z,100.00
2022-08-17T23:50:01.767Z,100.00
2022-08-17T23:52:35.168Z,100.00
2022-08-17T23:55:05.710Z,100.00
2022-08-17T23:57:36.241Z,100.00
